Aviation Digital Data Service (ADDS)

Output produced by METARs form (0933 UTC 07 December 2022)
found at http://www.aviationweather.gov/metar/data/
 
KHEZ 070856Z AUTO 14005KT 8SM BKN007 21/20 A3019 RMK AO2 CIG 006V011 SLP220 T02060200 51016
KHEZ 070756Z AUTO 14006KT 8SM OVC007 21/20 A3017 RMK AO2 SLP215 T02110200
KHEZ 070656Z AUTO 14006KT 9SM OVC009 21/20 A3016 RMK AO2 SLP210 T02060200
KHEZ 070623Z AUTO 15006KT 10SM BKN009 21/20 A3015 RMK AO2
KHEZ 070556Z AUTO 16007KT 10SM FEW009 21/19 A3014 RMK AO2 SLP204 T02110194 10239 20200 50003
KHEZ 070551Z AUTO 16009KT 10SM FEW009 21/19 A3014 RMK AO2
KHEZ 070456Z AUTO 14006KT 10SM CLR 21/18 A3014 RMK AO2 SLP205 T02060183 402720200
KHEZ 070356Z AUTO 14005KT 10SM CLR 22/18 A3013 RMK AO2 SLP202 T02170183
KHEZ 070256Z AUTO 15006KT 10SM CLR 22/18 A3011 RMK AO2 SLP194 T02220183 53015
KHEZ 070156Z AUTO 14005KT 10SM CLR 23/18 A3009 RMK AO2 SLP188 T02280178
KHEZ 070056Z AUTO 14005KT 10SM CLR 23/18 A3008 RMK AO2 SLP183 T02330183
KHEZ 062356Z AUTO 14005KT 10SM BKN055 24/18 A3006 RMK AO2 SLP179 T02440183 10272 20244 53014
KHEZ 062256Z AUTO 14005KT 10SM CLR 25/18 A3004 RMK AO2 SLP172 T02500178
KHEZ 062156Z AUTO 17007KT 10SM BKN055 26/18 A3003 RMK AO2 SLP167 T02610178
KHEZ 062056Z AUTO 17009KT 10SM FEW055 27/18 A3002 RMK AO2 SLP164 T02670178 56010
KHEZ 061956Z AUTO 17010G17KT 10SM FEW036 26/17 A3003 RMK AO2 SLP165 T02610172
KHEZ 061856Z AUTO 19009KT 10SM BKN036 BKN048 26/18 A3004 RMK AO2 SLP169 T02560178
KHEZ 061756Z AUTO 19008KT 160V230 10SM SCT029 BKN034 BKN047 27/19 A3005 RMK AO2 SLP174 T02670189 10267 20206 58005
KHEZ 061656Z AUTO 18011G20KT 10SM SCT024 BKN040 BKN046 26/19 A3007 RMK AO2 SLP180 T02560189
KHEZ 061556Z AUTO 17010G16KT 10SM OVC020 24/19 A3007 RMK AO2 SLP183 T02390194
KHEZ 061542Z AUTO 17011KT 10SM OVC016 23/19 A3007 RMK AO2
KHEZ 061456Z AUTO 15007KT 10SM OVC012 22/19 A3007 RMK AO2 SLP180 T02220194 51019
KHEZ 061429Z AUTO 15007G14KT 10SM OVC010 22/19 A3006 RMK AO2 CIG 008V014
KHEZ 061356Z AUTO 14007KT 10SM OVC008 21/19 A3005 RMK AO2 CIG 008V013 SLP174 T02060194
KHEZ 061256Z AUTO 14006KT 10SM BKN013 OVC021 21/19 A3003 RMK AO2 SLP168 T02060194
KHEZ 061230Z AUTO 14007KT 10SM BKN013 OVC021 21/19 A3002 RMK AO2
KHEZ 061156Z AUTO 15006KT 10SM SCT015 OVC021 21/19 A3001 RMK AO2 SLP160 T02110194 10217 20211 53007
KHEZ 061144Z AUTO 15006KT 10SM SCT013 BKN021 21/19 A3001 RMK AO2
KHEZ 061056Z AUTO 16008KT 10SM BKN013 OVC019 21/19 A2999 RMK AO2 SLP154 T02110194
KHEZ 060956Z AUTO 16007KT 10SM OVC013 21/19 A2999 RMK AO2 SLP154 T02110194
KHEZ 060856Z AUTO 16009KT 10SM BKN018 OVC048 21/19 A2999 RMK AO2 SLP153 T02110194 53004
KHEZ 060819Z AUTO 16009KT 10SM OVC019 21/19 A2998 RMK AO2
KHEZ 060756Z AUTO 16008KT 10SM OVC012 21/19 A2998 RMK AO2 SLP151 T02110194
KHEZ 060656Z AUTO 15007KT 10SM OVC012 22/20 A2998 RMK AO2 SLP150 T02170200
KHEZ 060556Z AUTO 16007KT 120V180 10SM OVC012 21/20 A2998 RMK AO2 SLP150 T02110200 10228 20206 53007
KHEZ 060456Z AUTO 16009KT 10SM BKN012 21/19 A2996 RMK AO2 SLP143 T02110194 402390139
KHEZ 060405Z AUTO 16008KT 10SM BKN014 21/19 A2996 RMK AO2
KHEZ 060356Z AUTO 16008KT 10SM BKN016 21/19 A2996 RMK AO2 SLP142 T02110194
KHEZ 060335Z AUTO 16009KT 10SM BKN018 21/19 A2996 RMK AO2
KHEZ 060256Z AUTO 15006KT 10SM CLR 22/19 A2995 RMK AO2 SLP142 T02170189 51003
KHEZ 060156Z AUTO 16008G16KT 10SM FEW065 22/19 A2995 RMK AO2 SLP142 T02220194
KHEZ 060056Z AUTO 16008KT 10SM OVC070 23/19 A2995 RMK AO2 SLP140 T02280194
KHEZ 052356Z AUTO 15007KT 10SM OVC070 23/19 A2994 RMK AO2 SLP139 T02280194 10239 20217 53003
KHEZ 052256Z AUTO 16006KT 10SM FEW041 OVC070 23/19 A2994 RMK AO2 SLP137 T02330194
KHEZ 052156Z AUTO 15005KT 10SM FEW037 OVC070 24/19 A2993 RMK AO2 SLP135 T02390189
KHEZ 052136Z AUTO 15007KT 10SM FEW024 OVC070 24/19 A2993 RMK AO2
KHEZ 052056Z AUTO 17008KT 10SM BKN022 OVC070 24/19 A2993 RMK AO2 SLP136 T02390194 56021
KHEZ 051956Z AUTO 18008KT 10SM OVC018 23/19 A2995 RMK AO2 SLP140 T02330194
KHEZ 051856Z AUTO VRB06KT 10SM OVC016 23/19 A2997 RMK AO2 SLP148 T02280189
KHEZ 051811Z AUTO 15006KT 10SM OVC016 22/19 A2998 RMK AO2
KHEZ 051756Z AUTO 15005KT 10SM OVC012 22/19 A3000 RMK AO2 SLP157 T02170189 10217 20172 58018
KHEZ 051726Z AUTO 17006KT 10SM OVC012 21/18 A3001 RMK AO2
KHEZ 051656Z AUTO 15008KT 10SM OVC009 20/18 A3002 RMK AO2 SLP165 T02000183
KHEZ 051610Z AUTO 15010KT 10SM OVC007 19/18 A3004 RMK AO2
KHEZ 051556Z AUTO 15009KT 10SM OVC005 19/18 A3004 RMK AO2 SLP172 T01890178
KHEZ 051456Z AUTO 16007KT 9SM OVC005 18/18 A3005 RMK AO2 SLP176 T01780178 53007
KHEZ 051443Z AUTO 15007KT 9SM OVC005 18/18 A3005 RMK AO2 CIG 003V007
KHEZ 051408Z AUTO 18005KT 4SM BR OVC003 18/17 A3004 RMK AO2
KHEZ 051356Z AUTO 19006KT 2SM BR OVC003 17/17 A3004 RMK AO2 SLP172 T01720172
KHEZ 051349Z AUTO 19007KT 1 1/4SM BR OVC003 17/17 RMK AO2 $
KHEZ 051256Z AUTO 15007KT 3/4SM BR OVC003 17/17 A3003 RMK AO2 SLP169 T01720167
KHEZ 051217Z AUTO 19005KT 1 3/4SM BR OVC003 17/17 A3003 RMK AO2
KHEZ 051206Z AUTO 16006KT 2SM BR OVC003 17/17 A3003 RMK AO2
KHEZ 051156Z AUTO 16006KT 5SM BR OVC005 17/16 A3003 RMK AO2 SLP169 T01720161 10172 20144 55006
KHEZ 051146Z AUTO 16006KT 7SM OVC005 17/16 A3003 RMK AO2
KHEZ 051056Z AUTO 15006KT 7SM BKN007 OVC011 17/16 A3002 RMK AO2 CIG 006V010 SLP167 T01720161
KHEZ 050956Z AUTO 14005KT 10SM OVC011 16/14 A3004 RMK AO2 SLP172 T01560144
KHEZ 050856Z AUTO 10005KT 7SM OVC013 14/13 A3005 RMK AO2 SLP175 T01440128 56019
KHEZ 050822Z AUTO 10005KT 10SM FEW007 BKN013 OVC065 14/12 A3006 RMK AO2
KHEZ 050815Z AUTO 11005KT 10SM SCT010 BKN015 OVC065 14/12 A3006 RMK AO2
KHEZ 050756Z AUTO 11008KT 10SM FEW006 BKN009 OVC065 14/12 A3006 RMK AO2 SLP181 T01440122
KHEZ 050656Z AUTO 11004KT 10SM OVC008 14/12 A3008 RMK AO2 SLP186 T01440122
KHEZ 050637Z AUTO 10004KT 10SM OVC008 14/12 A3009 RMK AO2 CIG 007V011
KHEZ 050609Z AUTO 05004KT 10SM OVC011 14/12 A3011 RMK AO2
KHEZ 050556Z AUTO 04004KT 10SM OVC009 14/12 A3011 RMK AO2 SLP194 T01440122 10144 20133 56015
KHEZ 050525Z AUTO 13005KT 10SM FEW005 BKN009 OVC065 14/12 A3011 RMK AO2 CIG 006V011
KHEZ 050456Z AUTO 12005KT 10SM OVC005 14/11 A3011 RMK AO2 CIG 004V008 SLP196 T01390111 401670100
KHEZ 050417Z AUTO 10006KT 10SM OVC005 13/11 A3013 RMK AO2
KHEZ 050356Z AUTO 08005KT 10SM OVC007 14/11 A3013 RMK AO2 SLP204 T01390111
KHEZ 050303Z AUTO 10008KT 10SM BKN009 OVC070 13/11 A3015 RMK AO2
KHEZ 050256Z AUTO 10007KT 10SM BKN011 OVC070 14/11 A3015 RMK AO2 SLP210 T01390106 58005
KHEZ 050156Z AUTO 08005KT 10SM OVC011 14/11 A3017 RMK AO2 SLP216 T01390106
KHEZ 050056Z AUTO 03007KT 10SM OVC013 14/10 A3018 RMK AO2 SLP218 T01390100
KHEZ 042356Z AUTO 05005KT 10SM OVC013 14/10 A3017 RMK AO2 SLP215 T01440100 10167 20144 55001
KHEZ 042256Z AUTO 06005KT 10SM OVC013 16/11 A3016 RMK AO2 SLP212 T01560106
KHEZ 042156Z AUTO 15005KT 10SM OVC013 16/10 A3016 RMK AO2 SLP211 T01610100
KHEZ 042056Z AUTO 07004KT 10SM OVC011 16/10 A3017 RMK AO2 SLP217 T01560100 57028
KHEZ 041956Z AUTO 05005KT 10SM OVC013 14/09 A3020 RMK AO2 SLP226 T01440094
KHEZ 041940Z AUTO 05005KT 10SM OVC015 14/09 A3021 RMK AO2
KHEZ 041856Z AUTO 04005KT 10SM OVC011 16/11 A3023 RMK AO2 SLP235 T01560106
KHEZ 041756Z AUTO 06004KT 10SM OVC011 15/10 A3025 RMK AO2 SLP245 T01500100 10150 20100 58021
KHEZ 041656Z AUTO 08006KT 10SM OVC011 14/09 A3029 RMK AO2 SLP258 T01390089
KHEZ 041556Z AUTO 07008KT 10SM OVC011 12/08 A3031 RMK AO2 SLP266 T01220078
KHEZ 041456Z AUTO 05006KT 10SM OVC013 11/07 A3032 RMK AO2 SLP266 T01110067 51011
KHEZ 041416Z AUTO 05010KT 10SM SCT009 OVC015 11/07 A3031 RMK AO2
KHEZ 041356Z AUTO 05008KT 10SM BKN009 OVC015 11/07 A3031 RMK AO2 SLP264 T01060067
KHEZ 041256Z AUTO 02007KT 10SM OVC009 11/07 A3030 RMK AO2 SLP260 T01060067
KHEZ 041156Z AUTO 04005KT 10SM BKN009 OVC044 11/07 A3028 RMK AO2 SLP254 T01060072 10111 20106 55003
KHEZ 041137Z AUTO 07005KT 10SM SCT009 OVC046 11/07 A3027 RMK AO2
KHEZ 041056Z AUTO 06007KT 10SM OVC046 11/07 A3028 RMK AO2 SLP253 T01060072
KHEZ 040956Z AUTO 06006KT 10SM OVC046 11/07 A3029 RMK AO2 SLP255 T01110072